createdAt,value
2023-05-21T00:03:16.600Z,9.70
2023-05-21T00:08:20.065Z,9.70
2023-05-21T00:13:23.388Z,9.73
2023-05-21T00:18:28.390Z,10.30
2023-05-21T00:23:32.801Z,10.18
2023-05-21T00:28:36.378Z,10.52
2023-05-21T00:33:41.384Z,10.95
2023-05-21T00:38:46.115Z,9.98
2023-05-21T00:43:49.715Z,9.90
2023-05-21T00:48:54.787Z,10.60
2023-05-21T00:53:59.141Z,10.88
2023-05-21T00:59:05.705Z,10.80
2023-05-21T01:04:10.831Z,11.27
2023-05-21T01:09:14.337Z,10.47
2023-05-21T01:14:19.438Z,10.75
2023-05-21T01:19:25.874Z,10.85
2023-05-21T01:24:30.676Z,11.02
2023-05-21T01:29:34.049Z,10.80
2023-05-21T01:34:44.662Z,10.98
2023-05-21T01:39:55.537Z,10.82
2023-05-21T01:45:00.835Z,11.13
2023-05-21T01:50:05.876Z,11.38
2023-05-21T01:55:11.291Z,10.32
2023-05-21T02:00:16.181Z,11.20
2023-05-21T02:05:19.799Z,11.88
2023-05-21T02:10:24.565Z,11.10
2023-05-21T02:15:28.144Z,11.83
2023-05-21T02:20:32.105Z,12.02
2023-05-21T02:25:37.114Z,12.68
2023-05-21T02:30:40.803Z,12.87
2023-05-21T02:35:45.123Z,11.87
2023-05-21T02:40:50.062Z,12.50
2023-05-21T02:45:53.636Z,11.48
2023-05-21T02:50:59.366Z,11.87
2023-05-21T02:56:04.242Z,12.23
2023-05-21T03:01:07.744Z,11.63
2023-05-21T03:06:11.608Z,12.20
2023-05-21T03:11:16.806Z,12.95
2023-05-21T03:16:20.198Z,12.40
2023-05-21T03:21:24.220Z,12.10
2023-05-21T03:26:29.561Z,13.10
2023-05-21T03:31:34.249Z,12.90
2023-05-21T03:36:46.359Z,12.93
2023-05-21T03:41:52.049Z,13.23
2023-05-21T03:47:03.103Z,13.13
2023-05-21T03:52:09.922Z,13.02
2023-05-21T03:57:14.872Z,12.53
2023-05-21T04:02:18.458Z,12.07
2023-05-21T04:07:22.420Z,12.10
2023-05-21T04:12:27.364Z,12.32
2023-05-21T04:17:30.771Z,11.70
2023-05-21T04:22:35.372Z,12.27
2023-05-21T04:27:40.214Z,12.10
2023-05-21T04:32:45.958Z,11.38
2023-05-21T04:37:49.476Z,10.95
2023-05-21T04:42:54.223Z,11.13
2023-05-21T04:48:01.168Z,11.07
2023-05-21T04:53:05.996Z,10.55
2023-05-21T04:58:11.636Z,11.35
2023-05-21T05:03:15.505Z,11.40
2023-05-21T05:08:20.444Z,11.35
2023-05-21T05:13:26.284Z,11.13
2023-05-21T05:18:30.489Z,10.90
2023-05-21T05:23:33.994Z,10.60
2023-05-21T05:28:38.910Z,11.30
2023-05-21T05:33:42.785Z,10.83
2023-05-21T05:38:46.404Z,10.40
2023-05-21T05:43:51.373Z,10.23
2023-05-21T05:48:57.348Z,10.43
2023-05-21T05:54:00.772Z,10.32
2023-05-21T05:59:05.631Z,10.23
2023-05-21T06:04:12.318Z,10.13
2023-05-21T06:09:16.038Z,10.00
2023-05-21T06:14:20.997Z,10.30
2023-05-21T06:19:25.615Z,9.80
2023-05-21T06:24:29.026Z,9.23
2023-05-21T06:29:34.400Z,9.50
2023-05-21T06:34:38.738Z,9.27
2023-05-21T06:39:42.173Z,9.70
2023-05-21T06:44:47.148Z,8.90
2023-05-21T06:49:55.003Z,14.45
2023-05-21T06:54:58.565Z,9.10
2023-05-21T07:00:09.330Z,8.93
2023-05-21T07:05:14.139Z,8.10
2023-05-21T07:10:18.333Z,8.35
2023-05-21T07:15:23.398Z,7.93
2023-05-21T07:20:27.106Z,8.43
2023-05-21T07:25:33.200Z,7.93
2023-05-21T07:30:38.678Z,7.60
2023-05-21T07:35:46.947Z,8.43
2023-05-21T07:40:50.519Z,8.50
2023-05-21T07:45:55.789Z,8.13
2023-05-21T07:51:00.600Z,8.67
2023-05-21T07:56:05.510Z,8.70
2023-05-21T08:01:11.986Z,7.82
2023-05-21T08:06:15.880Z,8.50
2023-05-21T08:11:20.059Z,9.00
2023-05-21T08:16:25.256Z,8.68
2023-05-21T08:21:29.210Z,8.93
2023-05-21T08:26:32.966Z,8.25
2023-05-21T08:31:38.974Z,8.00
2023-05-21T08:36:43.478Z,7.57
2023-05-21T08:42:25.592Z,7.45
2023-05-21T08:47:43.680Z,7.93
2023-05-21T08:52:48.261Z,7.45
2023-05-21T08:57:55.056Z,7.33
2023-05-21T09:03:07.748Z,7.17
2023-05-21T09:08:19.537Z,7.25
2023-05-21T09:13:36.843Z,6.60
2023-05-21T09:18:47.501Z,6.20
2023-05-21T09:23:58.304Z,6.87
2023-05-21T09:29:02.626Z,7.00
2023-05-21T09:34:08.553Z,6.83
2023-05-21T09:39:16.720Z,6.40
2023-05-21T09:44:21.702Z,6.32
2023-05-21T09:49:28.317Z,6.30
2023-05-21T09:54:34.799Z,6.17
2023-05-21T09:59:39.565Z,5.82
2023-05-21T10:04:45.885Z,5.55
2023-05-21T10:09:50.611Z,5.80
2023-05-21T10:15:02.622Z,5.43
2023-05-21T10:20:20.539Z,5.35
2023-05-21T10:25:25.075Z,5.95
2023-05-21T10:30:29.668Z,5.43
2023-05-21T10:35:35.611Z,5.30
2023-05-21T10:40:39.362Z,8.88
2023-05-21T10:46:00.272Z,5.40
2023-05-21T10:51:21.445Z,5.03
2023-05-21T10:56:30.017Z,5.53
2023-05-21T11:01:36.105Z,5.30
2023-05-21T11:06:41.033Z,5.60
2023-05-21T11:11:48.786Z,5.30
2023-05-21T11:16:52.493Z,5.53
2023-05-21T11:21:57.630Z,5.93
2023-05-21T11:27:04.594Z,5.60
2023-05-21T11:32:10.514Z,5.60
2023-05-21T11:37:43.770Z,5.88
2023-05-21T11:42:52.080Z,6.00
2023-05-21T11:47:57.273Z,5.40
2023-05-21T11:53:02.385Z,5.27
2023-05-21T11:58:08.598Z,5.45
2023-05-21T12:03:16.652Z,5.63
2023-05-21T12:08:26.002Z,5.38
2023-05-21T12:13:29.973Z,5.40
2023-05-21T12:18:33.333Z,5.30
2023-05-21T12:23:38.082Z,5.30
2023-05-21T12:28:41.621Z,5.40
2023-05-21T12:33:47.389Z,5.30
2023-05-21T12:38:52.927Z,5.22
2023-05-21T12:43:56.250Z,4.93
2023-05-21T12:48:59.577Z,5.18
2023-05-21T12:54:04.419Z,5.30
2023-05-21T12:59:14.630Z,5.10
2023-05-21T13:04:20.884Z,5.07
2023-05-21T13:09:25.736Z,5.47
2023-05-21T13:14:29.014Z,5.30
2023-05-21T13:19:32.390Z,4.97
2023-05-21T13:24:37.413Z,5.15
2023-05-21T13:29:40.735Z,4.70
2023-05-21T13:34:44.122Z,4.85
2023-05-21T13:39:49.477Z,4.83
2023-05-21T13:44:52.998Z,5.40
2023-05-21T13:49:56.348Z,5.27
2023-05-21T13:55:01.174Z,5.00
2023-05-21T14:00:06.044Z,5.53
2023-05-21T14:05:12.050Z,4.90
2023-05-21T14:10:17.095Z,4.97
2023-05-21T14:15:21.296Z,5.13
2023-05-21T14:20:24.683Z,4.90
2023-05-21T14:25:29.543Z,4.72
2023-05-21T14:30:33.136Z,4.72
2023-05-21T14:35:36.629Z,4.63
2023-05-21T14:40:41.607Z,4.65
2023-05-21T14:45:45.603Z,4.80
2023-05-21T14:50:49.314Z,5.00
2023-05-21T14:55:55.260Z,4.60
2023-05-21T15:00:58.688Z,4.30
2023-05-21T15:06:01.977Z,4.70
2023-05-21T15:11:07.710Z,4.77
2023-05-21T15:16:11.037Z,5.07
2023-05-21T15:21:14.350Z,5.00
2023-05-21T15:26:19.009Z,4.68
2023-05-21T15:31:22.393Z,4.10
2023-05-21T15:36:27.115Z,4.50
2023-05-21T15:41:31.929Z,4.70
2023-05-21T15:46:35.469Z,4.50
2023-05-21T15:51:40.384Z,4.80
2023-05-21T15:56:46.409Z,4.83
2023-05-21T16:01:50.389Z,4.53
2023-05-21T16:06:53.754Z,4.60
2023-05-21T16:11:58.551Z,5.05
2023-05-21T16:17:01.884Z,4.50
2023-05-21T16:22:05.542Z,4.47
2023-05-21T16:27:10.341Z,4.60
2023-05-21T16:32:14.316Z,4.90
2023-05-21T16:37:17.777Z,4.80
2023-05-21T16:42:22.473Z,4.87
2023-05-21T16:47:26.020Z,5.22
2023-05-21T16:52:29.591Z,5.38
2023-05-21T16:57:36.051Z,4.87
2023-05-21T17:02:40.514Z,4.90
2023-05-21T17:07:44.591Z,5.05
2023-05-21T17:12:49.343Z,4.50
2023-05-21T17:17:52.827Z,5.07
2023-05-21T17:22:56.415Z,4.93
2023-05-21T17:28:01.443Z,5.05
2023-05-21T17:33:05.003Z,4.78
2023-05-21T17:38:08.399Z,5.00
2023-05-21T17:43:13.321Z,5.10
2023-05-21T17:48:16.763Z,5.27
2023-05-21T17:53:20.184Z,4.85
2023-05-21T17:58:25.160Z,4.90
2023-05-21T18:03:28.652Z,5.45
2023-05-21T18:08:32.066Z,5.57
2023-05-21T18:13:36.942Z,5.50
2023-05-21T18:18:40.344Z,4.77
2023-05-21T18:23:43.904Z,4.95
2023-05-21T18:28:49.849Z,5.75
2023-05-21T18:33:53.456Z,5.50
2023-05-21T18:38:57.689Z,5.30
2023-05-21T18:44:02.869Z,5.60
2023-05-21T18:49:06.796Z,5.40
2023-05-21T18:54:10.158Z,5.68
2023-05-21T18:59:14.858Z,5.60
2023-05-21T19:04:19.904Z,6.17
2023-05-21T19:09:23.253Z,5.95
2023-05-21T19:14:27.958Z,6.20
2023-05-21T19:19:31.991Z,6.17
2023-05-21T19:24:35.528Z,6.30
2023-05-21T19:29:40.277Z,6.63
2023-05-21T19:34:44.754Z,6.75
2023-05-21T19:39:50.264Z,7.00
2023-05-21T19:44:55.176Z,6.70
2023-05-21T19:49:58.882Z,7.40
2023-05-21T19:55:05.150Z,6.70
2023-05-21T20:00:11.291Z,6.28
2023-05-21T20:05:20.094Z,6.60
2023-05-21T20:10:23.433Z,7.78
2023-05-21T20:15:28.221Z,7.10
2023-05-21T20:20:34.823Z,6.53
2023-05-21T20:25:38.818Z,6.77
2023-05-21T20:30:55.213Z,6.80
2023-05-21T20:35:58.744Z,6.72
2023-05-21T20:41:02.701Z,6.80
2023-05-21T20:46:07.912Z,7.10
2023-05-21T20:51:11.596Z,7.67
2023-05-21T20:56:16.935Z,7.50
2023-05-21T21:01:23.196Z,6.70
2023-05-21T21:06:30.138Z,7.05
2023-05-21T21:11:33.509Z,6.70
2023-05-21T21:16:38.365Z,7.65
2023-05-21T21:21:41.838Z,7.07
2023-05-21T21:26:45.149Z,7.57
2023-05-21T21:31:51.210Z,7.00
2023-05-21T21:36:56.217Z,7.10
2023-05-21T21:42:00.058Z,7.22
2023-05-21T21:47:05.103Z,6.47
2023-05-21T21:52:08.764Z,6.77
2023-05-21T21:57:12.310Z,6.50
2023-05-21T22:02:18.118Z,6.40
2023-05-21T22:07:21.592Z,6.10
2023-05-21T22:12:25.132Z,7.28
2023-05-21T22:17:29.998Z,6.90
2023-05-21T22:22:33.505Z,6.65
2023-05-21T22:27:36.992Z,6.78
2023-05-21T22:32:42.093Z,6.63
2023-05-21T22:37:45.615Z,6.90
2023-05-21T22:42:49.311Z,7.30
2023-05-21T22:47:56.699Z,7.00
2023-05-21T22:53:00.406Z,7.20
2023-05-21T22:58:03.904Z,7.27
2023-05-21T23:03:08.818Z,7.80
2023-05-21T23:08:12.487Z,7.60
2023-05-21T23:13:15.974Z,7.85
2023-05-21T23:18:21.094Z,8.07
2023-05-21T23:23:24.464Z,8.00
2023-05-21T23:28:28.169Z,8.43
2023-05-21T23:33:33.057Z,7.50
2023-05-21T23:38:36.495Z,8.50
2023-05-21T23:43:39.838Z,8.18
2023-05-21T23:48:44.710Z,8.93
2023-05-21T23:53:48.043Z,8.52
2023-05-21T23:58:51.811Z,8.82
